Time;durP1;ratioP1;P1;durP2;ratioP2;P2;SDS_P1;SDS_P2;PMS_P1;PMS_P2;Temp;Humidity;BMP_temperature;BMP_pressure;BME280_temperature;BME280_humidity;BME280_pressure;Samples;Min_cycle;Max_cycle;Signal;HPM_P1;HPM_P2
2021/03/31 00:01:40;;;;;;;17.07;6.00;;;14.00;61.20;;;;;;5080924;28;20029;-83
2021/03/31 00:04:06;;;;;;;11.57;5.47;;;14.00;61.40;;;;;;5062483;28;20032;-84
2021/03/31 00:06:31;;;;;;;13.83;6.40;;;13.90;62.00;;;;;;5080020;28;20029;-83
2021/03/31 00:08:57;;;;;;;11.37;6.03;;;13.90;61.40;;;;;;5062217;28;20028;-83
2021/03/31 00:11:23;;;;;;;14.83;7.30;;;14.00;62.80;;;;;;5063538;28;20020;-83
2021/03/31 00:13:48;;;;;;;15.73;7.60;;;13.90;62.90;;;;;;5064015;28;20481;-83
2021/03/31 00:16:14;;;;;;;14.57;6.77;;;13.90;61.90;;;;;;5077179;28;20017;-85
2021/03/31 00:18:40;;;;;;;11.40;5.53;;;13.90;62.00;;;;;;5074252;28;20035;-85
2021/03/31 00:21:06;;;;;;;11.57;5.37;;;13.90;60.90;;;;;;5055764;28;20036;-85
2021/03/31 00:23:31;;;;;;;10.43;5.37;;;13.90;61.10;;;;;;5074366;28;20107;-84
2021/03/31 00:25:58;;;;;;;11.33;5.93;;;13.90;61.50;;;;;;5056124;28;20115;-85
2021/03/31 00:28:25;;;;;;;10.23;5.37;;;13.80;62.70;;;;;;5073925;28;20025;-84
2021/03/31 00:30:51;;;;;;;11.30;5.53;;;13.80;62.40;;;;;;5055295;28;20024;-85
2021/03/31 00:33:18;;;;;;;12.67;6.00;;;13.70;61.10;;;;;;5056114;28;20059;-83
2021/03/31 00:35:44;;;;;;;11.13;5.40;;;13.70;59.60;;;;;;5078574;28;20051;-83
2021/03/31 00:38:10;;;;;;;14.67;5.87;;;13.60;60.30;;;;;;5072464;28;20020;-85
2021/03/31 00:40:42;;;;;;;14.03;5.17;;;13.60;58.10;;;;;;5055175;28;20036;-85
2021/03/31 00:43:07;;;;;;;11.73;5.70;;;13.60;58.10;;;;;;5073798;28;20025;-84
2021/03/31 00:45:34;;;;;;;9.90;5.33;;;13.50;58.20;;;;;;5056219;28;20035;-84
2021/03/31 00:47:59;;;;;;;10.13;5.30;;;13.50;59.30;;;;;;5058077;28;20067;-84
2021/03/31 00:50:26;;;;;;;12.07;5.37;;;13.40;66.30;;;;;;5054660;28;20052;-83
2021/03/31 00:52:53;;;;;;;11.47;5.43;;;13.40;67.20;;;;;;5054974;28;20024;-84
2021/03/31 00:55:22;;;;;;;10.47;5.17;;;13.30;65.20;;;;;;5059592;28;20044;-83
2021/03/31 00:57:49;;;;;;;12.95;4.63;;;13.30;62.50;;;;;;5077611;28;20139;-83
2021/03/31 01:00:16;;;;;;;9.73;4.53;;;13.30;61.30;;;;;;5079776;28;20021;-83
2021/03/31 01:02:41;;;;;;;10.07;4.37;;;13.30;60.40;;;;;;5060750;28;20028;-83
2021/03/31 01:05:29;;;;;;;9.87;4.20;;;13.20;59.90;;;;;;5059001;28;20025;-83
2021/03/31 01:07:55;;;;;;;9.40;4.43;;;13.30;59.20;;;;;;5054492;28;20029;-83
2021/03/31 01:10:34;;;;;;;9.07;4.87;;;13.30;58.60;;;;;;5075714;28;20036;-85
2021/03/31 01:13:17;;;;;;;10.10;4.78;;;13.40;58.80;;;;;;5055080;28;20059;-85
2021/03/31 01:15:49;;;;;;;10.93;4.60;;;13.30;57.30;;;;;;5074166;28;20477;-83
2021/03/31 01:18:22;;;;;;;11.33;4.60;;;13.40;58.00;;;;;;5061211;28;20044;-85
2021/03/31 01:21:09;;;;;;;14.53;4.40;;;13.40;57.50;;;;;;5055839;28;20024;-83
2021/03/31 01:23:41;;;;;;;12.03;4.43;;;13.30;58.40;;;;;;5061416;28;20078;-83
2021/03/31 01:26:31;;;;;;;10.13;4.57;;;13.30;60.10;;;;;;5059605;28;20048;-83
2021/03/31 01:29:03;;;;;;;12.87;4.93;;;13.30;63.00;;;;;;5054976;28;20063;-84
2021/03/31 01:31:40;;;;;;;10.37;4.87;;;13.30;63.70;;;;;;5072565;28;20012;-85
2021/03/31 01:34:29;;;;;;;10.80;5.00;;;13.30;64.00;;;;;;5057627;28;20510;-83
2021/03/31 01:36:56;;;;;;;8.98;4.32;;;13.40;61.60;;;;;;5059908;28;20112;-83
2021/03/31 01:39:23;;;;;;;11.77;4.80;;;13.40;61.60;;;;;;5058880;28;20119;-83
2021/03/31 01:41:52;;;;;;;8.30;4.40;;;13.40;60.60;;;;;;5075618;28;20032;-83
2021/03/31 01:44:20;;;;;;;12.00;4.45;;;13.50;59.00;;;;;;5079353;28;20055;-83
2021/03/31 01:46:53;;;;;;;9.27;4.23;;;13.50;58.50;;;;;;5080253;28;20575;-83
2021/03/31 01:49:22;;;;;;;10.20;4.13;;;13.50;57.30;;;;;;5060412;28;20082;-83
2021/03/31 01:51:52;;;;;;;8.25;4.10;;;13.60;56.60;;;;;;5076664;28;20073;-83
2021/03/31 01:54:19;;;;;;;8.50;3.93;;;13.60;55.20;;;;;;5072267;28;20032;-85
2021/03/31 01:56:46;;;;;;;11.57;4.50;;;13.60;54.80;;;;;;5060825;28;20040;-83
2021/03/31 01:59:14;;;;;;;11.97;4.37;;;13.60;55.20;;;;;;5061091;28;20385;-83
2021/03/31 02:01:41;;;;;;;10.63;4.38;;;13.60;56.80;;;;;;5060536;28;20024;-83
2021/03/31 02:04:07;;;;;;;14.20;4.47;;;13.60;56.50;;;;;;5061010;28;20029;-83
2021/03/31 02:06:34;;;;;;;9.57;4.60;;;13.60;55.00;;;;;;5079744;28;20020;-83
2021/03/31 02:09:00;;;;;;;11.37;4.60;;;13.70;55.00;;;;;;5059771;28;20119;-82
2021/03/31 02:11:28;;;;;;;10.60;4.63;;;13.60;55.70;;;;;;5063192;28;20036;-82
2021/03/31 02:13:56;;;;;;;9.57;4.73;;;13.50;56.40;;;;;;5063270;28;20605;-83
2021/03/31 02:16:23;;;;;;;10.27;5.03;;;13.50;56.20;;;;;;5081374;28;20028;-83
2021/03/31 02:18:50;;;;;;;9.77;4.53;;;13.50;56.70;;;;;;5057533;28;20063;-82
2021/03/31 02:21:16;;;;;;;9.03;4.33;;;13.50;57.70;;;;;;5059949;28;20040;-85
2021/03/31 02:23:43;;;;;;;9.67;4.30;;;13.50;57.60;;;;;;5079193;28;20032;-85
2021/03/31 02:26:09;;;;;;;9.73;4.70;;;13.50;57.20;;;;;;5064437;28;20056;-83
2021/03/31 02:28:34;;;;;;;15.47;5.80;;;13.40;58.10;;;;;;5064919;28;20439;-83
2021/03/31 02:31:00;;;;;;;9.47;4.67;;;13.40;59.10;;;;;;5064051;28;20028;-83
2021/03/31 02:33:28;;;;;;;11.90;4.53;;;13.40;60.10;;;;;;5064293;28;20033;-83
2021/03/31 02:35:54;;;;;;;13.83;5.00;;;13.30;61.10;;;;;;5064765;28;20067;-83
2021/03/31 02:38:22;;;;;;;11.30;4.63;;;13.20;62.70;;;;;;5064531;28;20024;-83
2021/03/31 02:40:49;;;;;;;10.63;4.30;;;13.20;61.50;;;;;;5064181;28;20724;-83
2021/03/31 02:43:17;;;;;;;8.80;4.57;;;13.20;64.10;;;;;;5062062;28;20417;-83
2021/03/31 02:45:50;;;;;;;10.63;4.93;;;13.10;66.10;;;;;;5057202;28;20028;-84
2021/03/31 02:48:17;;;;;;;12.50;4.93;;;12.90;67.70;;;;;;5075321;28;20025;-83
2021/03/31 02:50:46;;;;;;;10.33;4.80;;;12.90;68.30;;;;;;5056734;28;20028;-84
2021/03/31 02:53:13;;;;;;;11.00;5.07;;;12.70;68.50;;;;;;5073944;28;20077;-83
2021/03/31 02:55:39;;;;;;;10.77;5.20;;;12.70;66.40;;;;;;5075208;28;20028;-83
2021/03/31 02:58:07;;;;;;;10.60;4.70;;;12.50;66.80;;;;;;5057136;28;20028;-84
2021/03/31 03:00:34;;;;;;;11.73;4.83;;;12.50;65.70;;;;;;5074484;28;20066;-83
2021/03/31 03:03:02;;;;;;;13.33;5.37;;;12.40;64.80;;;;;;5074831;28;20025;-83
2021/03/31 03:05:28;;;;;;;12.20;4.80;;;12.40;66.80;;;;;;5074843;28;20094;-83
2021/03/31 03:07:54;;;;;;;12.53;5.20;;;12.30;67.10;;;;;;5056958;28;20024;-83
2021/03/31 03:10:20;;;;;;;10.83;5.03;;;12.40;68.10;;;;;;5056476;28;20031;-83
2021/03/31 03:12:56;;;;;;;12.67;5.03;;;12.40;67.90;;;;;;5056846;28;20025;-83
2021/03/31 03:15:25;;;;;;;12.33;5.00;;;12.30;69.10;;;;;;5075025;28;20021;-83
2021/03/31 03:17:51;;;;;;;11.88;5.20;;;12.30;70.00;;;;;;5074784;28;20017;-84
2021/03/31 03:20:18;;;;;;;13.67;5.10;;;12.30;70.40;;;;;;5073802;28;20040;-83
2021/03/31 03:22:46;;;;;;;11.87;5.33;;;12.40;70.30;;;;;;5074344;28;20035;-84
2021/03/31 03:25:13;;;;;;;11.60;5.25;;;12.40;69.80;;;;;;5056749;28;20036;-83
2021/03/31 03:27:44;;;;;;;9.37;4.80;;;12.40;69.10;;;;;;5056576;28;20165;-84
2021/03/31 03:30:14;;;;;;;11.40;5.03;;;12.40;68.40;;;;;;5073959;28;20025;-84
2021/03/31 03:32:42;;;;;;;9.07;4.40;;;12.50;65.70;;;;;;5056377;28;20039;-84
2021/03/31 03:35:11;;;;;;;10.10;5.00;;;12.50;65.30;;;;;;5073205;28;20111;-84
2021/03/31 03:37:37;;;;;;;11.45;5.20;;;12.50;65.40;;;;;;5056362;28;20020;-83
2021/03/31 03:40:04;;;;;;;12.00;5.20;;;12.50;66.30;;;;;;5073816;28;20043;-83
2021/03/31 03:42:30;;;;;;;9.57;4.87;;;12.50;67.90;;;;;;5074152;28;20024;-83
2021/03/31 03:45:00;;;;;;;12.27;5.00;;;12.50;68.90;;;;;;5056399;28;20024;-83
2021/03/31 03:47:26;;;;;;;15.97;5.30;;;12.40;70.20;;;;;;5056252;28;20024;-84
2021/03/31 03:49:51;;;;;;;13.23;6.80;;;12.40;69.80;;;;;;5073572;28;20363;-84
2021/03/31 03:52:17;;;;;;;10.80;4.90;;;12.40;71.10;;;;;;5056129;28;20048;-83
2021/03/31 03:54:53;;;;;;;10.77;5.13;;;12.30;70.50;;;;;;5072919;28;20055;-83
2021/03/31 03:57:28;;;;;;;11.03;5.13;;;12.30;70.90;;;;;;5074131;28;20480;-83
2021/03/31 03:59:55;;;;;;;10.67;5.13;;;12.20;71.50;;;;;;5072282;28;20550;-83
2021/03/31 04:02:21;;;;;;;12.97;5.20;;;12.20;71.70;;;;;;5056029;28;20416;-83
2021/03/31 04:04:47;;;;;;;10.60;5.17;;;12.20;72.20;;;;;;5074061;28;20389;-84
2021/03/31 04:07:13;;;;;;;13.83;5.73;;;12.10;72.50;;;;;;5073954;28;20028;-84
2021/03/31 04:09:45;;;;;;;11.93;5.30;;;12.20;73.10;;;;;;5073288;28;20027;-84
2021/03/31 04:12:11;;;;;;;11.07;5.73;;;12.10;73.50;;;;;;5073795;28;20539;-84
2021/03/31 04:14:41;;;;;;;11.93;6.03;;;12.10;74.00;;;;;;5055862;28;20177;-83
2021/03/31 04:17:10;;;;;;;11.10;5.87;;;12.00;73.90;;;;;;5055771;28;20025;-84
2021/03/31 04:19:37;;;;;;;12.13;5.13;;;11.90;72.30;;;;;;5055237;28;20116;-83
2021/03/31 04:22:04;;;;;;;14.53;5.93;;;11.90;71.10;;;;;;5055670;28;20039;-84
2021/03/31 04:24:30;;;;;;;13.67;5.60;;;11.80;72.20;;;;;;5055780;28;20052;-84
2021/03/31 04:26:57;;;;;;;12.23;5.53;;;11.70;72.20;;;;;;5055736;28;20061;-83
2021/03/31 04:29:23;;;;;;;10.50;5.37;;;11.60;72.00;;;;;;5055132;28;20029;-83
2021/03/31 04:31:49;;;;;;;10.20;5.40;;;11.60;72.00;;;;;;5073076;28;20020;-84
2021/03/31 04:34:17;;;;;;;12.30;5.23;;;11.60;70.80;;;;;;5055269;28;20078;-84
2021/03/31 04:36:44;;;;;;;10.83;4.83;;;11.70;70.50;;;;;;5074056;28;20027;-84
2021/03/31 04:39:10;;;;;;;11.30;5.20;;;11.60;70.90;;;;;;5054919;28;20066;-84
2021/03/31 04:41:36;;;;;;;14.43;5.23;;;11.60;69.20;;;;;;5071605;28;20550;-83
2021/03/31 04:44:04;;;;;;;15.07;5.80;;;11.60;69.70;;;;;;5055334;28;20024;-84
2021/03/31 04:46:29;;;;;;;13.73;5.30;;;11.70;67.70;;;;;;5055332;28;20123;-84
2021/03/31 04:48:55;;;;;;;13.00;5.67;;;11.80;68.20;;;;;;5072402;28;20092;-84
2021/03/31 04:51:21;;;;;;;13.20;5.80;;;11.70;68.70;;;;;;5073178;28;20478;-83
2021/03/31 04:53:46;;;;;;;14.17;6.30;;;11.60;67.60;;;;;;5073273;28;20032;-84
2021/03/31 04:56:12;;;;;;;11.53;5.83;;;11.50;68.30;;;;;;5071717;28;20024;-84
2021/03/31 04:58:38;;;;;;;13.40;5.90;;;11.50;69.30;;;;;;5073075;28;20366;-83
2021/03/31 05:01:04;;;;;;;25.93;6.13;;;11.60;69.70;;;;;;5054505;28;20087;-83
2021/03/31 05:03:29;;;;;;;11.67;5.40;;;11.70;69.80;;;;;;5072951;28;20031;-83
2021/03/31 05:05:55;;;;;;;14.20;5.63;;;11.80;69.10;;;;;;5072955;28;20060;-83
2021/03/31 05:08:21;;;;;;;11.60;5.77;;;11.80;69.90;;;;;;5054756;28;20024;-83
2021/03/31 05:10:47;;;;;;;17.20;6.30;;;11.90;69.70;;;;;;5072221;28;20100;-83
2021/03/31 05:13:13;;;;;;;14.47;5.50;;;11.80;69.40;;;;;;5054694;28;20016;-82
2021/03/31 05:15:39;;;;;;;12.37;5.80;;;11.80;68.70;;;;;;5055034;28;20485;-82
2021/03/31 05:18:05;;;;;;;15.67;6.27;;;11.70;68.10;;;;;;5072652;28;20496;-83
2021/03/31 05:20:31;;;;;;;15.63;6.60;;;11.70;68.60;;;;;;5054078;28;20497;-83
2021/03/31 05:22:57;;;;;;;12.60;5.77;;;11.80;69.30;;;;;;5054787;28;20051;-83
2021/03/31 05:25:22;;;;;;;20.23;9.80;;;11.80;69.30;;;;;;5072556;28;20029;-83
2021/03/31 05:27:48;;;;;;;21.57;9.47;;;11.80;70.40;;;;;;5072802;28;20059;-84
2021/03/31 05:30:14;;;;;;;15.87;7.73;;;11.90;69.80;;;;;;5053724;28;20028;-83
2021/03/31 05:32:40;;;;;;;13.87;6.90;;;11.90;69.40;;;;;;5053835;28;20512;-83
2021/03/31 05:35:07;;;;;;;16.27;6.70;;;11.90;68.80;;;;;;5054929;28;20017;-83
2021/03/31 05:37:34;;;;;;;20.10;6.70;;;11.90;68.80;;;;;;5054445;28;20589;-83
2021/03/31 05:39:59;;;;;;;18.43;6.23;;;11.80;68.60;;;;;;5053880;28;20478;-82
2021/03/31 05:42:25;;;;;;;15.97;5.97;;;11.70;69.00;;;;;;5054233;28;20021;-83
2021/03/31 05:44:51;;;;;;;16.93;5.83;;;11.70;68.40;;;;;;5054368;28;20028;-85
2021/03/31 05:49:50;;;;;;;17.43;6.30;;;11.70;70.20;;;;;;5071808;28;20028;-83
2021/03/31 05:52:15;;;;;;;15.70;6.47;;;11.70;71.00;;;;;;5054025;28;20020;-83
2021/03/31 05:54:41;;;;;;;14.97;6.37;;;11.80;71.50;;;;;;5054270;28;20021;-84
2021/03/31 05:57:08;;;;;;;19.00;7.27;;;11.80;71.70;;;;;;5057145;28;20016;-83
2021/03/31 05:59:36;;;;;;;15.17;6.80;;;11.80;71.10;;;;;;5060284;28;20028;-84
2021/03/31 06:02:02;;;;;;;15.27;6.60;;;11.80;71.30;;;;;;5078859;28;20024;-83
2021/03/31 06:04:28;;;;;;;15.57;6.43;;;11.80;72.00;;;;;;5080591;28;20080;-83
2021/03/31 06:06:54;;;;;;;16.33;6.83;;;11.80;72.10;;;;;;5080525;28;20060;-83
2021/03/31 06:09:20;;;;;;;15.23;6.97;;;11.80;70.60;;;;;;5080116;28;20033;-83
2021/03/31 06:11:52;;;;;;;13.87;6.43;;;11.90;69.80;;;;;;5082602;28;20024;-83
2021/03/31 06:14:31;;;;;;;14.40;6.97;;;11.90;69.00;;;;;;5063985;28;20021;-83
2021/03/31 06:17:09;;;;;;;23.52;8.48;;;12.00;67.70;;;;;;5060909;28;20504;-83
2021/03/31 06:19:40;;;;;;;19.13;7.32;;;12.10;66.60;;;;;;5060536;28;20032;-83
2021/03/31 06:25:20;;;;;;;17.60;7.40;;;12.10;68.40;;;;;;5061999;28;20029;-82
2021/03/31 06:27:53;;;;;;;19.80;7.30;;;12.10;69.00;;;;;;5059823;28;20024;-82
2021/03/31 06:30:21;;;;;;;18.07;6.90;;;12.10;69.20;;;;;;5077269;28;20020;-83
2021/03/31 06:32:47;;;;;;;25.70;6.83;;;12.20;68.00;;;;;;5059849;28;20047;-82
2021/03/31 06:35:18;;;;;;;18.57;7.13;;;12.20;68.60;;;;;;5062570;28;20020;-83
2021/03/31 06:37:44;;;;;;;20.43;7.43;;;12.20;68.00;;;;;;5077549;28;20027;-83
2021/03/31 06:40:37;;;;;;;19.87;7.27;;;12.30;67.20;;;;;;5079194;28;20021;-83
2021/03/31 06:43:28;;;;;;;27.67;7.90;;;12.40;66.80;;;;;;5061458;28;20051;-83
2021/03/31 06:46:05;;;;;;;24.80;8.17;;;12.40;65.60;;;;;;5062251;28;20036;-84
2021/03/31 06:48:37;;;;;;;15.27;6.13;;;12.50;64.90;;;;;;5077940;28;20100;-83
2021/03/31 06:51:02;;;;;;;16.47;6.17;;;12.60;62.50;;;;;;5061167;28;20032;-83
2021/03/31 06:53:30;;;;;;;17.00;6.60;;;12.70;61.00;;;;;;5060981;28;20381;-83
2021/03/31 06:56:04;;;;;;;11.97;6.00;;;12.80;60.80;;;;;;5061580;28;20020;-84
2021/03/31 06:58:31;;;;;;;14.23;5.83;;;12.90;59.50;;;;;;5064273;28;20024;-83
2021/03/31 07:00:57;;;;;;;15.70;6.40;;;13.00;59.90;;;;;;5063501;28;20036;-83
2021/03/31 07:03:23;;;;;;;21.33;6.40;;;13.10;58.90;;;;;;5082060;28;20047;-82
2021/03/31 07:05:49;;;;;;;13.03;5.70;;;13.10;58.60;;;;;;5064144;28;20024;-83
2021/03/31 07:08:16;;;;;;;15.83;5.63;;;13.20;58.50;;;;;;5083407;28;20519;-83
2021/03/31 07:10:53;;;;;;;12.70;5.57;;;13.30;58.00;;;;;;5081153;28;20033;-83
2021/03/31 07:13:35;;;;;;;11.83;5.53;;;13.30;58.10;;;;;;5066530;28;20051;-83
2021/03/31 07:16:04;;;;;;;11.90;5.23;;;13.40;57.60;;;;;;5082486;28;20029;-82
2021/03/31 07:18:32;;;;;;;14.07;6.40;;;13.40;57.20;;;;;;5084357;28;20058;-83
2021/03/31 07:20:58;;;;;;;11.80;5.20;;;13.50;56.30;;;;;;5064862;28;20489;-83
2021/03/31 07:23:25;;;;;;;18.30;5.70;;;13.60;56.20;;;;;;5066334;28;20028;-84
2021/03/31 07:25:52;;;;;;;11.47;5.37;;;13.60;55.30;;;;;;5066889;28;20055;-83
2021/03/31 07:28:35;;;;;;;12.70;5.70;;;13.80;53.90;;;;;;5065871;28;20058;-83
2021/03/31 07:31:02;;;;;;;12.20;5.80;;;13.80;54.30;;;;;;5063214;28;20036;-83
2021/03/31 07:33:43;;;;;;;13.63;5.27;;;13.90;53.30;;;;;;5081661;22;20037;-85
2021/03/31 07:36:10;;;;;;;9.30;4.67;;;13.90;53.50;;;;;;5055050;28;20024;-85
2021/03/31 07:38:38;;;;;;;12.77;5.40;;;14.00;53.40;;;;;;5054864;28;20013;-84
2021/03/31 07:41:04;;;;;;;14.37;6.27;;;14.00;53.10;;;;;;5054923;28;20017;-85
2021/03/31 07:43:36;;;;;;;11.50;5.40;;;14.10;53.00;;;;;;5054291;28;20498;-85
2021/03/31 07:46:07;;;;;;;9.00;4.70;;;14.20;52.70;;;;;;5057101;28;20028;-85
2021/03/31 07:48:34;;;;;;;18.03;5.80;;;14.20;52.60;;;;;;5056876;28;20477;-85
2021/03/31 07:51:21;;;;;;;11.10;5.50;;;14.30;52.40;;;;;;5073464;28;20054;-85
2021/03/31 07:53:49;;;;;;;11.13;4.83;;;14.30;51.70;;;;;;5056695;28;20111;-84
2021/03/31 07:56:17;;;;;;;11.23;4.97;;;14.40;51.80;;;;;;5056643;28;20028;-86
2021/03/31 07:59:03;;;;;;;10.63;5.05;;;14.50;51.20;;;;;;5056762;28;20451;-85
2021/03/31 08:01:51;;;;;;;9.27;4.97;;;14.60;51.10;;;;;;5056483;28;20025;-85
2021/03/31 08:04:19;;;;;;;8.75;4.72;;;14.60;51.20;;;;;;5073245;28;20038;-87
2021/03/31 08:06:47;;;;;;;15.80;5.32;;;14.60;51.20;;;;;;5074322;28;20027;-85
2021/03/31 08:09:27;;;;;;;11.90;4.85;;;14.70;50.30;;;;;;5056303;28;20027;-85
2021/03/31 08:12:06;;;;;;;11.70;5.00;;;14.80;50.20;;;;;;5056481;28;20016;-84
2021/03/31 08:14:35;;;;;;;14.60;6.00;;;14.80;50.20;;;;;;5056397;28;20503;-85
2021/03/31 08:17:03;;;;;;;12.00;4.95;;;14.80;50.00;;;;;;5056277;28;20043;-85
2021/03/31 08:19:32;;;;;;;11.55;5.53;;;14.90;50.30;;;;;;5056168;28;20044;-86
2021/03/31 08:21:59;;;;;;;;;;;14.90;50.80;;;;;;5056630;28;20400;-85
2021/03/31 08:24:44;;;;;;;13.68;6.50;;;14.80;50.50;;;;;;5056374;28;19910;-85
2021/03/31 08:27:12;;;;;;;12.02;5.88;;;14.90;51.20;;;;;;5056112;28;20028;-85
2021/03/31 08:29:37;;;;;;;11.30;4.78;;;14.90;50.10;;;;;;5055972;28;20021;-86
2021/03/31 08:32:06;;;;;;;17.08;9.30;;;15.00;49.70;;;;;;5073847;28;20053;-85
2021/03/31 08:34:33;;;;;;;11.95;7.05;;;14.90;50.10;;;;;;5074015;28;20021;-85
2021/03/31 08:37:01;;;;;;;11.88;5.82;;;15.00;49.90;;;;;;5072621;28;20046;-84
2021/03/31 08:39:26;;;;;;;9.95;5.93;;;15.00;49.70;;;;;;5056020;28;20036;-85
2021/03/31 08:41:55;;;;;;;13.07;5.03;;;15.10;49.60;;;;;;5055671;28;20400;-85
2021/03/31 08:44:37;;;;;;;14.40;5.82;;;15.20;49.10;;;;;;5055850;28;20428;-85
2021/03/31 08:47:09;;;;;;;14.15;5.38;;;15.20;48.70;;;;;;5055773;28;20499;-84
2021/03/31 08:49:35;;;;;;;13.23;5.25;;;15.30;48.80;;;;;;5055803;28;20107;-85
2021/03/31 08:52:05;;;;;;;10.85;4.68;;;15.30;48.90;;;;;;5073491;28;20016;-85
2021/03/31 08:54:32;;;;;;;8.25;4.57;;;15.30;49.10;;;;;;5073439;28;20016;-85
2021/03/31 08:57:00;;;;;;;8.40;4.10;;;15.30;48.70;;;;;;5073434;28;20040;-85
2021/03/31 08:59:31;;;;;;;10.43;4.97;;;15.40;48.50;;;;;;5055756;28;20030;-88
2021/03/31 09:01:57;;;;;;;8.98;4.97;;;15.40;48.80;;;;;;5073048;28;20503;-86
2021/03/31 09:04:25;;;;;;;10.88;4.30;;;15.40;48.70;;;;;;5073312;28;20024;-86
2021/03/31 09:06:54;;;;;;;9.75;5.07;;;15.40;48.90;;;;;;5055027;28;20025;-86
2021/03/31 09:09:20;;;;;;;;;;;15.50;48.20;;;;;;5072096;28;20032;-85
2021/03/31 09:11:46;;;;;;;12.35;4.82;;;15.50;48.30;;;;;;5055143;28;19908;-84
2021/03/31 09:14:22;;;;;;;8.48;4.50;;;15.50;48.30;;;;;;5073100;28;20074;-85
2021/03/31 09:16:58;;;;;;;12.45;4.65;;;15.60;48.20;;;;;;5055271;28;20024;-85
2021/03/31 09:19:27;;;;;;;9.40;4.22;;;15.60;48.00;;;;;;5055319;28;20401;-85
2021/03/31 09:21:53;;;;;;;;;;;15.60;47.60;;;;;;5075165;28;20021;-85
2021/03/31 09:24:25;;;;;;;6.85;3.83;;;15.70;47.60;;;;;;5056335;28;19905;-85
2021/03/31 09:27:21;;;;;;;11.32;4.53;;;15.80;47.40;;;;;;5056139;28;20052;-87
2021/03/31 09:30:16;;;;;;;20.30;9.45;;;15.80;47.40;;;;;;5056058;28;20465;-85
2021/03/31 09:33:00;;;;;;;11.68;5.43;;;15.80;47.90;;;;;;5056051;28;20054;-85
2021/03/31 09:35:26;;;;;;;10.13;4.28;;;15.90;47.40;;;;;;5056732;28;20119;-85
2021/03/31 09:37:53;;;;;;;13.60;6.50;;;16.00;47.00;;;;;;5056275;28;20052;-85
2021/03/31 09:40:24;;;;;;;10.20;5.50;;;16.00;46.90;;;;;;5056388;28;20028;-85
2021/03/31 09:42:56;;;;;;;11.63;4.90;;;16.10;46.90;;;;;;5055114;28;20050;-85
2021/03/31 09:45:26;;;;;;;10.18;4.13;;;16.00;47.00;;;;;;5054710;28;20032;-85
2021/03/31 09:47:52;;;;;;;8.68;4.60;;;16.10;47.20;;;;;;5055051;28;20427;-86
2021/03/31 09:50:23;;;;;;;7.80;3.80;;;16.10;47.40;;;;;;5054725;28;20111;-86
2021/03/31 09:52:57;;;;;;;8.05;3.92;;;16.20;46.70;;;;;;5054934;28;20119;-85
2021/03/31 09:55:23;;;;;;;9.38;4.35;;;16.30;46.50;;;;;;5054655;28;20030;-85
2021/03/31 09:57:51;;;;;;;8.32;4.13;;;16.30;45.90;;;;;;5054701;28;20020;-85
2021/03/31 10:00:18;;;;;;;8.48;4.00;;;16.50;45.40;;;;;;5072541;28;20028;-86
2021/03/31 10:02:45;;;;;;;9.65;3.70;;;16.60;44.80;;;;;;5054390;28;20108;-85
2021/03/31 10:05:20;;;;;;;13.95;3.90;;;16.70;44.00;;;;;;5054751;28;20029;-85
2021/03/31 10:08:02;;;;;;;10.60;4.13;;;16.70;44.30;;;;;;5054496;28;20025;-86
2021/03/31 10:10:46;;;;;;;10.40;4.88;;;16.90;43.50;;;;;;5054333;28;20440;-85
2021/03/31 10:13:14;;;;;;;7.28;4.22;;;17.00;42.80;;;;;;5054455;28;20029;-85
2021/03/31 10:15:46;;;;;;;8.77;3.60;;;17.10;41.80;;;;;;5054402;28;20070;-85
2021/03/31 10:18:13;;;;;;;7.47;3.42;;;17.20;41.90;;;;;;5054275;28;20132;-86
2021/03/31 10:20:46;;;;;;;6.13;3.38;;;17.10;42.30;;;;;;5054558;28;20024;-85
2021/03/31 10:23:25;;;;;;;8.60;3.50;;;17.00;42.50;;;;;;5054344;28;20032;-86
2021/03/31 10:25:51;;;;;;;8.02;4.03;;;17.20;42.40;;;;;;5054236;28;20021;-85
2021/03/31 10:28:36;;;;;;;10.77;6.70;;;17.30;42.00;;;;;;5054267;28;20528;-85
2021/03/31 10:31:42;;;;;;;11.15;5.07;;;17.30;42.20;;;;;;5054973;28;20029;-85
2021/03/31 10:34:09;;;;;;;9.00;3.70;;;17.30;42.50;;;;;;5017751;28;20551;-85
2021/03/31 10:39:55;;;;;;;7.78;4.05;;;17.40;42.40;;;;;;5076429;28;20027;-85
2021/03/31 10:48:51;;;;;;;12.40;5.68;;;17.50;43.00;;;;;;5076107;28;20059;-85
2021/03/31 10:53:57;;;;;;;14.70;7.75;;;17.50;43.50;;;;;;5076423;28;20098;-85
2021/03/31 10:56:23;;;;;;;13.63;6.35;;;17.60;43.00;;;;;;5058017;28;20082;-86
2021/03/31 10:58:52;;;;;;;15.40;7.72;;;17.60;43.20;;;;;;5057929;28;20020;-85
2021/03/31 11:01:18;;;;;;;10.68;5.90;;;17.70;43.30;;;;;;5057747;28;20028;-85
2021/03/31 11:03:43;;;;;;;12.65;5.70;;;17.60;43.60;;;;;;5057766;28;20112;-85
2021/03/31 11:06:09;;;;;;;9.02;4.85;;;17.50;43.00;;;;;;5057756;28;20029;-86
2021/03/31 11:08:35;;;;;;;8.98;4.30;;;17.70;43.00;;;;;;5057662;28;20466;-88
2021/03/31 11:11:01;;;;;;;10.07;4.78;;;17.80;42.70;;;;;;5057521;28;20021;-85
2021/03/31 11:13:26;;;;;;;7.75;4.05;;;17.70;43.00;;;;;;5057539;28;20058;-85
2021/03/31 11:15:53;;;;;;;10.35;3.78;;;17.80;42.60;;;;;;5057624;28;20361;-85
2021/03/31 11:18:25;;;;;;;7.63;3.78;;;17.90;43.20;;;;;;5057638;28;20086;-85
2021/03/31 11:26:19;;;;;;;8.30;3.55;;;18.00;42.50;;;;;;5076243;28;20083;-85
2021/03/31 11:28:45;;;;;;;11.73;4.53;;;18.00;43.40;;;;;;5057960;28;20024;-85
2021/03/31 11:31:10;;;;;;;10.35;3.83;;;18.00;42.50;;;;;;5058181;28;20025;-85
2021/03/31 11:33:37;;;;;;;8.75;3.70;;;18.10;41.70;;;;;;5057284;28;20037;-86
2021/03/31 11:36:03;;;;;;;8.45;3.38;;;18.10;42.20;;;;;;5057741;28;20101;-85
2021/03/31 11:38:29;;;;;;;9.18;3.70;;;18.30;42.00;;;;;;5057914;28;20473;-85
2021/03/31 11:40:54;;;;;;;6.65;3.38;;;18.30;41.80;;;;;;5057438;28;20027;-85
2021/03/31 11:43:20;;;;;;;7.88;3.60;;;18.30;41.90;;;;;;5057337;28;20029;-86
2021/03/31 11:45:47;;;;;;;11.60;3.45;;;18.20;42.30;;;;;;5057501;28;20028;-87
2021/03/31 11:48:14;;;;;;;12.55;3.60;;;18.20;42.90;;;;;;5057344;28;20028;-85
2021/03/31 11:50:39;;;;;;;8.02;3.20;;;18.20;42.30;;;;;;5057603;28;20550;-85
2021/03/31 11:53:05;;;;;;;8.38;3.58;;;18.40;42.40;;;;;;5057415;28;20024;-85
2021/03/31 11:55:31;;;;;;;9.57;3.85;;;18.60;41.60;;;;;;5057327;28;20482;-85
2021/03/31 11:57:57;;;;;;;7.88;3.50;;;18.70;41.30;;;;;;5057591;28;20024;-85
2021/03/31 12:00:23;;;;;;;11.10;4.13;;;18.80;41.50;;;;;;5057390;28;20025;-85
2021/03/31 12:02:49;;;;;;;10.07;4.07;;;18.80;41.80;;;;;;5057040;28;20549;-86
2021/03/31 12:05:16;;;;;;;9.73;4.00;;;19.00;41.20;;;;;;5057333;28;20028;-86
2021/03/31 12:07:42;;;;;;;8.70;3.80;;;18.90;41.00;;;;;;5057247;28;20024;-85
2021/03/31 12:10:09;;;;;;;7.00;3.30;;;19.10;40.90;;;;;;5056785;28;20028;-85
2021/03/31 12:12:36;;;;;;;8.10;3.05;;;19.30;40.70;;;;;;5056716;28;20024;-85
2021/03/31 12:15:04;;;;;;;7.80;3.25;;;19.50;39.30;;;;;;5059130;28;20024;-85
2021/03/31 12:17:29;;;;;;;7.13;3.17;;;19.30;40.30;;;;;;5058336;28;20024;-86
2021/03/31 12:19:55;;;;;;;6.53;3.30;;;19.20;40.60;;;;;;5057809;28;20029;-85
2021/03/31 12:22:21;;;;;;;7.47;3.38;;;19.00;41.20;;;;;;5057806;28;20546;-86
2021/03/31 12:24:46;;;;;;;7.60;3.58;;;19.00;41.10;;;;;;5057963;28;20031;-85
2021/03/31 12:27:15;;;;;;;7.55;3.00;;;19.20;40.70;;;;;;5058552;28;20025;-85
2021/03/31 12:29:44;;;;;;;5.70;2.67;;;19.50;38.60;;;;;;5059005;28;20078;-85
2021/03/31 12:32:15;;;;;;;8.77;2.85;;;19.30;39.30;;;;;;5058584;28;20028;-86
2021/03/31 12:34:45;;;;;;;6.03;3.25;;;19.50;39.80;;;;;;5057827;28;20032;-85
2021/03/31 12:37:12;;;;;;;6.47;2.50;;;19.40;39.70;;;;;;5057125;28;20024;-85
2021/03/31 12:39:38;;;;;;;5.90;2.75;;;19.50;38.10;;;;;;5056733;28;20036;-85
2021/03/31 12:42:04;;;;;;;6.82;3.00;;;19.60;37.80;;;;;;5056064;28;20393;-85
2021/03/31 12:44:30;;;;;;;8.32;3.00;;;19.70;38.40;;;;;;5055882;28;20024;-85
2021/03/31 12:46:56;;;;;;;7.93;3.25;;;19.80;38.70;;;;;;5055800;28;20035;-86
2021/03/31 12:49:22;;;;;;;7.20;3.10;;;19.90;38.40;;;;;;5055812;28;20111;-86
2021/03/31 12:51:53;;;;;;;4.95;2.30;;;19.80;38.30;;;;;;5055559;28;20500;-86
2021/03/31 12:56:47;;;;;;;9.00;3.15;;;20.00;36.30;;;;;;5073700;28;20044;-85
2021/03/31 12:59:13;;;;;;;7.68;3.15;;;20.10;37.20;;;;;;5055654;28;20496;-85
2021/03/31 13:01:39;;;;;;;7.40;3.22;;;20.10;37.00;;;;;;5055544;28;20435;-85
2021/03/31 13:04:05;;;;;;;9.85;3.40;;;20.00;36.90;;;;;;5055555;28;20504;-85
2021/03/31 13:06:32;;;;;;;7.72;3.35;;;20.20;37.10;;;;;;5055519;28;20416;-85
2021/03/31 13:08:58;;;;;;;6.90;3.35;;;20.50;36.20;;;;;;5055560;28;20503;-85
2021/03/31 13:11:25;;;;;;;8.50;3.22;;;20.60;36.60;;;;;;5055753;28;20108;-85
2021/03/31 13:16:37;;;;;;;7.40;3.30;;;20.50;36.90;;;;;;5073581;28;20484;-85
2021/03/31 13:32:33;;;;;;;6.95;2.25;;;20.00;36.30;;;;;;5083353;22;20397;-86